createdAt,value
2022-12-28T00:01:46.918Z,3.90
2022-12-28T00:04:17.841Z,4.00
2022-12-28T00:06:45.578Z,3.90
2022-12-28T00:09:13.217Z,3.90
2022-12-28T00:11:40.342Z,3.90
2022-12-28T00:14:07.505Z,3.80
2022-12-28T00:16:36.923Z,3.80
2022-12-28T00:19:07.175Z,3.80
2022-12-28T00:21:34.687Z,3.70
2022-12-28T00:24:02.994Z,3.70
2022-12-28T00:26:32.049Z,3.70
2022-12-28T00:29:04.636Z,3.60
2022-12-28T00:31:34.173Z,3.60
2022-12-28T00:34:02.589Z,3.60
2022-12-28T00:37:10.367Z,3.60
2022-12-28T00:39:19.225Z,3.60
2022-12-28T00:41:46.818Z,3.60
2022-12-28T00:44:13.910Z,3.60
2022-12-28T00:46:41.413Z,3.60
2022-12-28T00:49:08.683Z,3.60
2022-12-28T00:51:35.969Z,3.60
2022-12-28T00:54:03.055Z,3.60
2022-12-28T00:56:30.116Z,3.60
2022-12-28T00:58:59.218Z,3.60
2022-12-28T01:01:28.252Z,3.50
2022-12-28T01:03:59.198Z,3.50
2022-12-28T01:06:28.132Z,3.50
2022-12-28T01:08:58.792Z,3.50
2022-12-28T01:11:30.099Z,3.40
2022-12-28T01:14:00.032Z,3.40
2022-12-28T01:16:40.533Z,3.40
2022-12-28T01:19:21.874Z,3.40
2022-12-28T01:22:00.579Z,3.40
2022-12-28T01:24:29.132Z,3.40
2022-12-28T01:27:04.938Z,3.30
2022-12-28T01:29:33.008Z,3.30
2022-12-28T01:32:00.277Z,3.30
2022-12-28T01:34:29.602Z,3.30
2022-12-28T01:36:56.832Z,3.40
2022-12-28T01:39:23.844Z,3.40
2022-12-28T01:41:51.096Z,3.40
2022-12-28T01:44:24.281Z,3.40
2022-12-28T01:46:55.478Z,3.40
2022-12-28T01:49:31.659Z,3.40
2022-12-28T01:52:20.551Z,3.40
2022-12-28T01:55:17.151Z,3.40
2022-12-28T01:57:52.382Z,3.40
2022-12-28T02:00:20.179Z,3.30
2022-12-28T02:02:52.818Z,3.30
2022-12-28T02:05:22.459Z,3.30
2022-12-28T02:08:09.784Z,3.30
2022-12-28T02:10:42.328Z,3.20
2022-12-28T02:13:14.939Z,3.20
2022-12-28T02:15:42.522Z,3.10
2022-12-28T02:18:11.116Z,3.10
2022-12-28T02:20:58.633Z,3.00
2022-12-28T02:23:51.864Z,3.00
2022-12-28T02:26:49.528Z,2.90
2022-12-28T02:29:37.364Z,2.80
2022-12-28T02:32:24.005Z,2.80
2022-12-28T02:35:18.805Z,2.70
2022-12-28T02:37:49.315Z,2.60
2022-12-28T02:40:35.192Z,2.60
2022-12-28T02:43:03.549Z,2.60
2022-12-28T02:46:04.234Z,2.50
2022-12-28T02:49:05.100Z,2.40
2022-12-28T02:52:17.111Z,2.40
2022-12-28T02:55:15.925Z,2.40
2022-12-28T02:57:58.577Z,2.40
2022-12-28T03:00:34.043Z,2.30
2022-12-28T03:03:34.063Z,2.30
2022-12-28T03:06:46.014Z,2.30
2022-12-28T03:09:32.101Z,2.30
2022-12-28T03:12:09.038Z,2.20
2022-12-28T03:14:57.228Z,2.20
2022-12-28T03:17:48.404Z,2.20
2022-12-28T03:20:44.129Z,2.20
2022-12-28T03:23:34.585Z,2.20
2022-12-28T03:26:25.814Z,2.10
2022-12-28T03:29:13.582Z,2.10
2022-12-28T03:31:43.859Z,2.10
2022-12-28T03:34:14.661Z,2.10
2022-12-28T03:37:01.888Z,2.10
2022-12-28T03:39:31.804Z,2.00
2022-12-28T03:42:22.967Z,2.00
2022-12-28T03:45:01.727Z,2.00
2022-12-28T03:47:31.924Z,2.00
2022-12-28T03:49:59.835Z,2.00
2022-12-28T03:52:27.765Z,1.90
2022-12-28T03:54:54.882Z,1.90
2022-12-28T03:57:23.674Z,1.90
2022-12-28T03:59:51.344Z,1.80
2022-12-28T04:02:18.928Z,1.80
2022-12-28T04:04:47.370Z,1.70
2022-12-28T04:07:15.282Z,1.70
2022-12-28T04:09:42.238Z,1.60
2022-12-28T04:12:12.425Z,1.60
2022-12-28T04:14:58.040Z,1.60
2022-12-28T04:17:25.347Z,1.60
2022-12-28T04:19:52.381Z,1.60
2022-12-28T04:22:19.423Z,1.60
2022-12-28T04:24:46.640Z,1.60
2022-12-28T04:27:13.734Z,1.70
2022-12-28T04:29:40.871Z,1.80
2022-12-28T04:32:19.196Z,1.70
2022-12-28T04:34:48.838Z,1.70
2022-12-28T04:37:18.629Z,1.70
2022-12-28T04:39:56.359Z,1.70
2022-12-28T04:42:26.320Z,1.80
2022-12-28T04:44:53.340Z,1.70
2022-12-28T04:47:20.535Z,1.80
2022-12-28T04:49:47.655Z,1.80
2022-12-28T04:52:14.838Z,1.80
2022-12-28T04:54:41.844Z,1.80
2022-12-28T04:57:08.779Z,1.80
2022-12-28T04:59:35.763Z,1.80
2022-12-28T05:02:02.997Z,1.80
2022-12-28T05:04:30.202Z,1.80
2022-12-28T05:06:57.261Z,1.80
2022-12-28T05:09:24.384Z,1.80
2022-12-28T05:11:51.425Z,1.80
2022-12-28T05:14:18.544Z,1.80
2022-12-28T05:16:45.598Z,1.70
2022-12-28T05:19:12.765Z,1.70
2022-12-28T05:21:40.360Z,1.60
2022-12-28T05:24:07.752Z,1.60
2022-12-28T05:26:35.899Z,1.60
2022-12-28T05:29:03.334Z,1.70
2022-12-28T05:31:30.518Z,1.70
2022-12-28T05:33:57.770Z,1.60
2022-12-28T05:36:27.548Z,1.60
2022-12-28T05:38:55.712Z,1.60
2022-12-28T05:41:26.314Z,1.50
2022-12-28T05:43:54.108Z,1.50
2022-12-28T05:46:24.974Z,1.50
2022-12-28T05:48:52.618Z,1.50
2022-12-28T05:51:22.136Z,1.50
2022-12-28T05:53:49.802Z,1.50
2022-12-28T05:56:19.538Z,1.50
2022-12-28T05:58:52.076Z,1.50
2022-12-28T06:01:21.801Z,1.50
2022-12-28T06:03:53.558Z,1.60
2022-12-28T06:06:21.332Z,1.80
2022-12-28T06:08:49.492Z,1.80
2022-12-28T06:11:19.095Z,1.80
2022-12-28T06:13:46.772Z,2.00
2022-12-28T06:16:22.698Z,2.00
2022-12-28T06:18:49.979Z,2.00
2022-12-28T06:21:22.736Z,2.10
2022-12-28T06:23:50.644Z,2.10
2022-12-28T06:26:20.727Z,2.10
2022-12-28T06:28:48.697Z,2.20
2022-12-28T06:31:21.591Z,2.20
2022-12-28T06:33:49.941Z,2.20
2022-12-28T06:36:20.468Z,2.20
2022-12-28T06:38:49.327Z,2.20
2022-12-28T06:41:17.517Z,2.20
2022-12-28T06:43:45.442Z,2.20
2022-12-28T06:46:13.780Z,2.20
2022-12-28T06:48:41.241Z,2.30
2022-12-28T06:51:12.685Z,2.30
2022-12-28T06:53:39.900Z,2.30
2022-12-28T06:56:28.738Z,2.30
2022-12-28T06:59:02.394Z,2.30
2022-12-28T07:01:39.251Z,2.40
2022-12-28T07:04:08.051Z,2.30
2022-12-28T07:06:38.308Z,2.30
2022-12-28T07:09:08.839Z,2.30
2022-12-28T07:11:36.259Z,2.30
2022-12-28T07:14:03.463Z,2.30
2022-12-28T07:18:59.353Z,2.50
2022-12-28T07:21:32.912Z,2.60
2022-12-28T07:24:00.367Z,2.60
2022-12-28T07:26:30.435Z,2.60
2022-12-28T07:28:58.940Z,2.70
2022-12-28T07:31:31.308Z,2.70
2022-12-28T07:34:00.169Z,2.80
2022-12-28T07:36:30.671Z,2.90
2022-12-28T07:38:58.399Z,3.00
2022-12-28T07:41:30.295Z,3.10
2022-12-28T07:43:59.301Z,3.50
2022-12-28T07:46:28.884Z,3.80
2022-12-28T07:49:01.036Z,4.20
2022-12-28T07:51:30.945Z,4.60
2022-12-28T07:53:59.561Z,5.10
2022-12-28T07:56:28.384Z,5.70
2022-12-28T07:58:57.700Z,5.90
2022-12-28T08:01:27.506Z,6.10
2022-12-28T08:03:56.392Z,6.00
2022-12-28T08:06:24.621Z,6.10
2022-12-28T08:08:54.067Z,6.10
2022-12-28T08:11:23.694Z,6.20
2022-12-28T08:13:52.357Z,6.20
2022-12-28T08:16:21.146Z,6.10
2022-12-28T08:18:49.234Z,5.70
2022-12-28T08:21:22.315Z,5.70
2022-12-28T08:23:50.469Z,5.70
2022-12-28T08:26:23.118Z,5.50
2022-12-28T08:28:52.721Z,5.30
2022-12-28T08:31:26.374Z,5.30
2022-12-28T08:33:55.222Z,5.40
2022-12-28T08:36:22.649Z,5.40
2022-12-28T08:38:49.860Z,5.40
2022-12-28T08:41:19.979Z,5.40
2022-12-28T08:43:48.365Z,5.50
2022-12-28T08:46:18.213Z,5.60
2022-12-28T08:48:46.728Z,5.70
2022-12-28T08:51:22.836Z,5.90
2022-12-28T08:53:50.579Z,6.10
2022-12-28T08:56:29.516Z,6.20
2022-12-28T08:58:58.228Z,6.30
2022-12-28T09:01:37.271Z,6.40
2022-12-28T09:04:11.868Z,6.50
2022-12-28T09:06:39.662Z,6.50
2022-12-28T09:09:08.710Z,6.60
2022-12-28T09:11:36.703Z,6.60
2022-12-28T09:14:05.768Z,6.60
2022-12-28T09:16:33.330Z,6.70
2022-12-28T09:19:02.279Z,7.00
2022-12-28T09:21:32.282Z,7.50
2022-12-28T09:23:59.437Z,7.50
2022-12-28T09:26:28.754Z,7.80
2022-12-28T09:28:58.193Z,8.10
2022-12-28T09:31:28.282Z,8.10
2022-12-28T09:36:48.984Z,8.10
2022-12-28T09:39:20.967Z,8.20
2022-12-28T09:42:05.973Z,8.10
2022-12-28T09:44:56.093Z,8.20
2022-12-28T09:47:33.031Z,8.10
2022-12-28T09:50:16.675Z,8.20
2022-12-28T09:53:05.843Z,8.30
2022-12-28T09:55:39.814Z,8.10
2022-12-28T09:58:14.978Z,8.10
2022-12-28T10:00:47.163Z,7.70
2022-12-28T10:03:19.508Z,7.60
2022-12-28T10:05:47.693Z,7.30
2022-12-28T10:08:19.055Z,7.60
2022-12-28T10:10:49.153Z,7.60
2022-12-28T10:13:53.536Z,7.50
2022-12-28T10:16:19.069Z,7.50
2022-12-28T10:18:47.296Z,7.30
2022-12-28T10:21:16.913Z,7.20
2022-12-28T10:24:12.492Z,7.20
2022-12-28T10:26:33.751Z,7.10
2022-12-28T10:29:01.080Z,7.10
2022-12-28T10:31:36.565Z,7.10
2022-12-28T10:34:15.451Z,7.00
2022-12-28T10:36:45.460Z,6.80
2022-12-28T10:39:23.347Z,6.70
2022-12-28T10:41:51.608Z,6.70
2022-12-28T10:44:39.249Z,6.80
2022-12-28T10:47:18.397Z,6.70
2022-12-28T10:50:10.448Z,6.60
2022-12-28T10:52:39.386Z,6.60
2022-12-28T10:55:27.984Z,6.70
2022-12-28T10:58:28.033Z,6.60
2022-12-28T11:00:45.664Z,6.70
2022-12-28T11:03:19.056Z,6.70
2022-12-28T11:05:47.949Z,6.60
2022-12-28T11:08:23.878Z,6.60
2022-12-28T11:10:57.985Z,6.60
2022-12-28T11:13:27.382Z,6.60
2022-12-28T11:15:54.729Z,6.60
2022-12-28T11:18:22.436Z,6.60
2022-12-28T11:20:54.260Z,6.50
2022-12-28T11:23:26.498Z,6.50
2022-12-28T11:25:53.588Z,6.50
2022-12-28T11:28:22.495Z,6.60
2022-12-28T11:30:51.373Z,6.60
2022-12-28T11:33:48.120Z,6.70
2022-12-28T11:36:17.846Z,6.70
2022-12-28T11:38:47.570Z,6.80
2022-12-28T11:41:33.594Z,6.80
2022-12-28T11:44:04.771Z,6.90
2022-12-28T11:46:31.864Z,6.90
2022-12-28T11:49:04.809Z,6.90
2022-12-28T11:51:36.817Z,6.90
2022-12-28T11:54:25.474Z,6.80
2022-12-28T11:56:52.479Z,6.90
2022-12-28T11:59:25.955Z,6.90
2022-12-28T12:01:55.332Z,7.00
2022-12-28T12:04:31.472Z,6.90
2022-12-28T12:07:01.579Z,6.90
2022-12-28T12:09:32.933Z,6.90
2022-12-28T12:12:22.996Z,6.90
2022-12-28T12:15:10.034Z,7.10
2022-12-28T12:17:47.398Z,7.10
2022-12-28T12:20:23.245Z,7.20
2022-12-28T12:22:57.384Z,7.30
2022-12-28T12:25:40.932Z,7.30
2022-12-28T12:28:28.146Z,7.30
2022-12-28T12:30:56.284Z,7.50
2022-12-28T12:33:27.520Z,7.70
2022-12-28T12:36:10.032Z,7.90
2022-12-28T12:39:38.364Z,7.90
2022-12-28T12:42:16.724Z,7.90
2022-12-28T12:44:53.295Z,7.90
2022-12-28T12:47:35.912Z,7.80
2022-12-28T12:50:11.671Z,8.00
2022-12-28T12:53:04.450Z,7.90
2022-12-28T12:55:49.526Z,7.80
2022-12-28T12:58:25.443Z,7.80
2022-12-28T13:01:27.713Z,7.80
2022-12-28T13:03:56.951Z,7.80
2022-12-28T13:06:28.045Z,7.90
2022-12-28T13:09:05.281Z,7.80
2022-12-28T13:11:37.674Z,7.80
2022-12-28T13:14:05.821Z,7.90
2022-12-28T13:16:33.674Z,7.90
2022-12-28T13:19:06.721Z,7.90
2022-12-28T13:21:45.587Z,7.90
2022-12-28T13:24:45.956Z,7.80
2022-12-28T13:27:20.669Z,7.80
2022-12-28T13:29:53.127Z,7.70
2022-12-28T13:32:37.536Z,7.60
2022-12-28T13:35:18.497Z,7.50
2022-12-28T13:38:12.334Z,7.50
2022-12-28T13:40:41.588Z,7.40
2022-12-28T13:43:45.431Z,7.40
2022-12-28T13:46:17.509Z,7.30
2022-12-28T13:48:48.533Z,7.30
2022-12-28T13:51:19.057Z,7.30
2022-12-28T13:53:51.531Z,7.30
2022-12-28T13:56:21.449Z,7.30
2022-12-28T13:58:56.578Z,7.30
2022-12-28T14:01:29.830Z,7.30
2022-12-28T14:04:33.709Z,7.30
2022-12-28T14:06:51.545Z,7.30
2022-12-28T14:09:20.536Z,7.20
2022-12-28T14:11:48.699Z,7.30
2022-12-28T14:14:17.276Z,7.20
2022-12-28T14:16:44.798Z,7.20
2022-12-28T14:19:12.496Z,7.20
2022-12-28T14:21:42.467Z,7.20
2022-12-28T14:24:16.833Z,7.10
2022-12-28T14:26:53.828Z,7.10
2022-12-28T14:29:28.936Z,7.10
2022-12-28T14:32:04.709Z,7.10
2022-12-28T14:34:35.219Z,7.00
2022-12-28T14:37:02.638Z,6.90
2022-12-28T14:39:34.692Z,6.80
2022-12-28T14:42:04.511Z,6.80
2022-12-28T14:44:38.986Z,6.70
2022-12-28T14:47:44.433Z,6.60
2022-12-28T14:50:18.909Z,6.60
2022-12-28T14:52:48.278Z,6.60
2022-12-28T14:55:27.187Z,6.50
2022-12-28T14:58:00.664Z,6.50
2022-12-28T15:00:34.118Z,6.40
2022-12-28T15:03:17.775Z,6.40
2022-12-28T15:05:52.738Z,6.40
2022-12-28T15:08:20.303Z,6.40
2022-12-28T15:10:55.822Z,6.30
2022-12-28T15:13:25.092Z,6.20
2022-12-28T15:15:57.854Z,6.20
2022-12-28T15:18:27.240Z,6.20
2022-12-28T15:20:54.584Z,6.20
2022-12-28T15:23:22.028Z,6.10
2022-12-28T15:25:49.385Z,6.10
2022-12-28T15:28:19.109Z,6.10
2022-12-28T15:30:46.429Z,6.00
2022-12-28T15:33:13.420Z,6.00
2022-12-28T15:35:40.491Z,5.90
2022-12-28T15:38:07.710Z,5.90
2022-12-28T15:40:34.861Z,5.80
2022-12-28T15:43:01.971Z,5.80
2022-12-28T15:45:29.124Z,5.70
2022-12-28T15:47:56.218Z,5.70
2022-12-28T15:50:24.453Z,5.60
2022-12-28T15:52:51.447Z,5.60
2022-12-28T15:55:18.521Z,5.50
2022-12-28T15:57:45.505Z,5.50
2022-12-28T16:00:18.873Z,5.50
2022-12-28T16:02:46.769Z,5.50
2022-12-28T16:05:14.630Z,5.40
2022-12-28T16:07:41.683Z,5.40
2022-12-28T16:10:09.272Z,5.30
2022-12-28T16:12:36.585Z,5.30
2022-12-28T16:15:03.901Z,5.30
2022-12-28T16:17:30.976Z,5.30
2022-12-28T16:19:58.004Z,5.30
2022-12-28T16:22:25.614Z,5.30
2022-12-28T16:24:52.625Z,5.30
2022-12-28T16:27:19.693Z,5.30
2022-12-28T16:29:52.714Z,5.40
2022-12-28T16:32:22.518Z,5.40
2022-12-28T16:34:49.607Z,5.40
2022-12-28T16:37:16.932Z,5.40
2022-12-28T16:39:44.327Z,5.40
2022-12-28T16:42:11.579Z,5.40
2022-12-28T16:44:40.367Z,5.40
2022-12-28T16:47:07.662Z,5.40
2022-12-28T16:49:39.604Z,5.40
2022-12-28T16:52:06.835Z,5.40
2022-12-28T16:54:34.088Z,5.50
2022-12-28T16:57:01.075Z,5.40
2022-12-28T16:59:28.766Z,5.40
2022-12-28T17:01:56.970Z,5.40
2022-12-28T17:04:24.541Z,5.40
2022-12-28T17:06:51.996Z,5.40
2022-12-28T17:09:19.934Z,5.40
2022-12-28T17:11:48.708Z,5.30
2022-12-28T17:14:29.286Z,5.30
2022-12-28T17:17:03.428Z,5.30
2022-12-28T17:19:30.582Z,5.30
2022-12-28T17:21:57.839Z,5.20
2022-12-28T17:24:24.971Z,5.20
2022-12-28T17:26:52.172Z,5.20
2022-12-28T17:29:19.464Z,5.10
2022-12-28T17:31:46.703Z,5.10
2022-12-28T17:34:14.181Z,5.10
2022-12-28T17:36:41.231Z,5.10
2022-12-28T17:39:08.474Z,5.00
2022-12-28T17:41:35.568Z,5.00
2022-12-28T17:44:02.803Z,5.00
2022-12-28T17:46:30.662Z,5.10
2022-12-28T17:48:59.176Z,5.10
2022-12-28T17:51:28.586Z,5.10
2022-12-28T17:53:56.781Z,5.10
2022-12-28T17:56:24.204Z,5.10
2022-12-28T17:58:55.890Z,5.10
2022-12-28T18:01:23.279Z,5.00
2022-12-28T18:03:50.371Z,5.00
2022-12-28T18:06:17.631Z,5.00
2022-12-28T18:08:44.877Z,5.00
2022-12-28T18:11:11.974Z,5.00
2022-12-28T18:13:40.457Z,5.00
2022-12-28T18:16:09.488Z,4.90
2022-12-28T18:18:36.580Z,4.90
2022-12-28T18:21:06.361Z,4.80
2022-12-28T18:23:34.517Z,4.80
2022-12-28T18:26:18.524Z,4.80
2022-12-28T18:28:46.375Z,4.70
2022-12-28T18:31:13.564Z,4.70
2022-12-28T18:33:40.666Z,4.60
2022-12-28T18:36:13.804Z,4.60
2022-12-28T18:38:43.431Z,4.50
2022-12-28T18:41:12.534Z,4.50
2022-12-28T18:43:40.379Z,4.40
2022-12-28T18:46:09.091Z,4.40
2022-12-28T18:48:38.725Z,4.40
2022-12-28T18:51:09.459Z,4.40
2022-12-28T18:53:37.188Z,4.40
2022-12-28T18:56:07.145Z,4.40
2022-12-28T18:58:36.536Z,4.40
2022-12-28T19:01:33.040Z,4.40
2022-12-28T19:04:01.445Z,4.40
2022-12-28T19:06:30.396Z,4.50
2022-12-28T19:09:01.282Z,4.50
2022-12-28T19:11:28.785Z,4.50
2022-12-28T19:13:56.161Z,4.40
2022-12-28T19:16:30.740Z,4.50
2022-12-28T19:18:58.811Z,4.50
2022-12-28T19:21:33.164Z,4.60
2022-12-28T19:24:04.109Z,4.50
2022-12-28T19:26:32.832Z,4.50
2022-12-28T19:29:00.056Z,4.50
2022-12-28T19:31:27.835Z,4.50
2022-12-28T19:33:55.253Z,4.50
2022-12-28T19:36:22.513Z,4.50
2022-12-28T19:38:49.525Z,4.50
2022-12-28T19:41:16.817Z,4.50
2022-12-28T19:43:44.983Z,4.40
2022-12-28T19:46:14.001Z,4.40
2022-12-28T19:48:41.671Z,4.40
2022-12-28T19:51:09.411Z,4.40
2022-12-28T19:53:37.569Z,4.30
2022-12-28T19:56:08.078Z,4.30
2022-12-28T19:58:37.119Z,4.30
2022-12-28T20:01:16.833Z,4.30
2022-12-28T20:03:45.000Z,4.40
2022-12-28T20:06:16.710Z,4.50
2022-12-28T20:08:48.011Z,4.50
2022-12-28T20:11:15.675Z,4.60
2022-12-28T20:13:50.384Z,4.60
2022-12-28T20:16:17.637Z,4.60
2022-12-28T20:18:53.071Z,4.50
2022-12-28T20:21:22.299Z,4.50
2022-12-28T20:23:50.706Z,4.50
2022-12-28T20:26:19.592Z,4.50
2022-12-28T20:28:49.117Z,4.50
2022-12-28T20:31:16.659Z,4.40
2022-12-28T20:33:44.388Z,4.40
2022-12-28T20:36:14.355Z,4.40
2022-12-28T20:38:41.531Z,4.40
2022-12-28T20:41:31.683Z,4.40
2022-12-28T20:44:00.315Z,4.40
2022-12-28T20:46:28.056Z,4.30
2022-12-28T20:48:55.664Z,4.30
2022-12-28T20:51:23.026Z,4.30
2022-12-28T20:53:50.130Z,4.30
2022-12-28T20:56:17.375Z,4.30
2022-12-28T20:58:44.685Z,4.30
2022-12-28T21:01:14.508Z,4.30
2022-12-28T21:03:42.305Z,4.40
2022-12-28T21:06:09.658Z,4.40
2022-12-28T21:08:36.754Z,4.40
2022-12-28T21:11:04.388Z,4.30
2022-12-28T21:13:32.076Z,4.30
2022-12-28T21:15:59.472Z,4.40
2022-12-28T21:18:26.664Z,4.40
2022-12-28T21:21:01.343Z,4.30
2022-12-28T21:23:29.760Z,4.30
2022-12-28T21:26:07.796Z,4.40
2022-12-28T21:28:35.436Z,4.30
2022-12-28T21:31:04.973Z,4.30
2022-12-28T21:33:33.273Z,4.20
2022-12-28T21:36:02.163Z,4.20
2022-12-28T21:38:30.711Z,4.20
2022-12-28T21:41:02.993Z,4.30
2022-12-28T21:43:31.795Z,4.30
2022-12-28T21:46:04.620Z,4.40
2022-12-28T21:48:33.478Z,4.30
2022-12-28T21:51:31.533Z,4.30
2022-12-28T21:54:00.194Z,4.30
2022-12-28T21:56:28.320Z,4.30
2022-12-28T21:58:56.231Z,4.30
2022-12-28T22:01:41.808Z,4.50
2022-12-28T22:04:34.443Z,4.50
2022-12-28T22:07:01.895Z,4.40
2022-12-28T22:09:48.207Z,4.40
2022-12-28T22:12:34.567Z,4.40
2022-12-28T22:15:23.753Z,4.40
2022-12-28T22:17:55.010Z,4.40
2022-12-28T22:20:23.128Z,4.40
2022-12-28T22:22:50.279Z,4.30
2022-12-28T22:25:17.614Z,4.20
2022-12-28T22:27:44.630Z,4.20
2022-12-28T22:30:12.608Z,4.10
2022-12-28T22:32:40.035Z,4.10
2022-12-28T22:35:08.183Z,4.10
2022-12-28T22:37:36.016Z,4.10
2022-12-28T22:40:03.770Z,4.00
2022-12-28T22:42:31.137Z,4.00
2022-12-28T22:44:58.296Z,4.10
2022-12-28T22:47:28.143Z,4.10
2022-12-28T22:49:55.383Z,4.00
2022-12-28T22:52:22.682Z,4.00
2022-12-28T22:54:51.217Z,4.00
2022-12-28T22:57:18.341Z,4.00
2022-12-28T22:59:45.643Z,4.00
2022-12-28T23:02:12.948Z,4.00
2022-12-28T23:04:40.248Z,3.90
2022-12-28T23:07:07.479Z,3.90
2022-12-28T23:09:35.324Z,3.90
2022-12-28T23:12:05.557Z,3.90
2022-12-28T23:15:02.084Z,3.90
2022-12-28T23:17:29.388Z,3.90
2022-12-28T23:20:14.933Z,3.80
2022-12-28T23:23:11.276Z,3.70
2022-12-28T23:26:12.727Z,3.70
2022-12-28T23:28:39.916Z,3.70
2022-12-28T23:31:07.078Z,3.70
2022-12-28T23:33:34.164Z,3.60
2022-12-28T23:36:03.725Z,3.50
2022-12-28T23:38:32.775Z,3.50
2022-12-28T23:41:18.202Z,3.40
2022-12-28T23:43:45.556Z,3.40
2022-12-28T23:46:12.786Z,3.40
2022-12-28T23:48:39.885Z,3.40
2022-12-28T23:51:08.412Z,3.40
2022-12-28T23:53:36.181Z,3.30
2022-12-28T23:56:03.213Z,3.30
2022-12-28T23:58:30.407Z,3.30
